Time;durP1;ratioP1;P1;durP2;ratioP2;P2;SDS_P1;SDS_P2;PMS_P1;PMS_P2;Temp;Humidity;BMP_temperature;BMP_pressure;BME280_temperature;BME280_humidity;BME280_pressure;Samples;Min_cycle;Max_cycle;Signal;HPM_P1;HPM_P2
2023/08/28 00:00:12;;;;;;;3.30;2.70;;;;;;;21.35;100.00;99404.63;105004;1254;61666;-48
2023/08/28 00:02:41;;;;;;;3.30;2.90;;;;;;;21.34;100.00;99404.69;104932;1257;60432;-50
2023/08/28 00:05:09;;;;;;;4.00;3.50;;;;;;;21.33;100.00;99405.50;105021;1254;71644;-52
2023/08/28 00:07:36;;;;;;;4.10;2.50;;;;;;;21.32;100.00;99407.61;104916;1253;67411;-48
2023/08/28 00:10:04;;;;;;;3.40;2.90;;;;;;;21.30;100.00;99408.88;104954;1255;73651;-51
2023/08/28 00:12:34;;;;;;;5.20;2.70;;;;;;;21.30;100.00;99408.70;105016;1260;61621;-50
2023/08/28 00:15:03;;;;;;;2.90;2.60;;;;;;;21.30;100.00;99408.86;104961;1254;60524;-48
2023/08/28 00:17:31;;;;;;;7.00;2.90;;;;;;;21.31;100.00;99406.48;106825;1254;73808;-49
2023/08/28 00:19:58;;;;;;;3.60;3.30;;;;;;;21.29;100.00;99412.67;104916;1260;66782;-52
2023/08/28 00:22:26;;;;;;;7.10;4.20;;;;;;;21.24;100.00;99414.44;105020;1254;71393;-50
2023/08/28 00:24:53;;;;;;;3.40;3.20;;;;;;;21.21;100.00;99411.46;104885;1254;60464;-53
2023/08/28 00:27:20;;;;;;;7.30;4.30;;;;;;;21.18;100.00;99407.36;104668;1259;60639;-52
2023/08/28 00:29:48;;;;;;;3.50;3.00;;;;;;;21.17;100.00;99406.75;104777;1258;72557;-51
2023/08/28 00:32:16;;;;;;;5.60;3.80;;;;;;;21.15;100.00;99399.05;104770;1254;66798;-50
2023/08/28 00:34:43;;;;;;;4.90;2.80;;;;;;;21.12;100.00;99392.89;104746;1257;71572;-52
2023/08/28 00:37:14;;;;;;;4.60;3.20;;;;;;;21.10;100.00;99391.44;105043;1254;61758;-50
2023/08/28 00:39:41;;;;;;;3.10;2.70;;;;;;;21.09;100.00;99391.10;104896;1258;60528;-51
2023/08/28 00:42:09;;;;;;;4.10;3.80;;;;;;;21.08;100.00;99396.46;104976;1259;73848;-49
2023/08/28 00:44:36;;;;;;;4.10;3.20;;;;;;;21.08;100.00;99396.05;104869;1253;65794;-50
2023/08/28 00:47:04;;;;;;;3.40;3.20;;;;;;;21.09;100.00;99391.65;106182;1254;71380;-50
2023/08/28 00:49:31;;;;;;;6.00;3.20;;;;;;;21.09;100.00;99392.09;104765;1254;62125;-50
2023/08/28 00:51:59;;;;;;;3.40;3.10;;;;;;;21.09;100.00;99393.36;104864;1257;60368;-50
2023/08/28 00:54:26;;;;;;;2.70;2.50;;;;;;;21.10;100.00;99394.39;104720;1254;72637;-53
2023/08/28 00:56:56;;;;;;;3.70;3.10;;;;;;;21.12;100.00;99391.10;104956;1254;66774;-52
2023/08/28 00:59:25;;;;;;;4.50;3.70;;;;;;;21.13;100.00;99392.10;104971;1254;72437;-51
2023/08/28 01:01:52;;;;;;;4.30;2.90;;;;;;;21.11;100.00;99397.38;104610;1261;60549;-50
2023/08/28 01:04:20;;;;;;;3.00;2.80;;;;;;;21.09;100.00;99396.34;104860;1260;60526;-50
2023/08/28 01:06:52;;;;;;;3.10;2.60;;;;;;;21.06;100.00;99394.27;104927;1254;72733;-50
2023/08/28 01:09:21;;;;;;;2.80;2.60;;;;;;;21.03;100.00;99391.07;104864;1262;66747;-51
2023/08/28 01:12:21;;;;;;;5.60;3.30;;;;;;;21.02;100.00;99392.63;105296;1254;72662;-50
2023/08/28 01:15:09;;;;;;;3.60;3.10;;;;;;;21.01;100.00;99393.42;105001;1260;62123;-49
2023/08/28 01:17:36;;;;;;;6.40;2.50;;;;;;;21.02;100.00;99392.05;105039;1254;60330;-50
2023/08/28 01:20:04;;;;;;;3.10;2.80;;;;;;;21.04;100.00;99387.02;104778;1254;73905;-52
2023/08/28 01:22:35;;;;;;;4.40;3.50;;;;;;;21.05;100.00;99390.00;105467;1254;66038;-51
2023/08/28 01:25:09;;;;;;;5.20;3.50;;;;;;;21.04;100.00;99390.20;104866;1260;73816;-50
2023/08/28 01:27:37;;;;;;;4.00;3.70;;;;;;;21.04;100.00;99388.83;105058;1260;60532;-50
2023/08/28 01:30:10;;;;;;;6.00;4.10;;;;;;;21.01;100.00;99387.23;105407;1257;59251;-49
2023/08/28 01:32:38;;;;;;;4.00;3.70;;;;;;;20.98;100.00;99386.98;105247;1254;75975;-51
2023/08/28 01:35:12;;;;;;;7.20;5.30;;;;;;;20.98;100.00;99385.34;104863;1259;66792;-50
2023/08/28 01:37:58;;;;;;;5.40;4.80;;;;;;;20.97;100.00;99388.18;104830;1255;72629;-50
2023/08/28 01:40:30;;;;;;;5.90;5.20;;;;;;;20.95;100.00;99389.16;104956;1256;61927;-51
2023/08/28 01:42:57;;;;;;;5.60;5.20;;;;;;;20.94;100.00;99386.28;104815;1254;60443;-50
2023/08/28 01:45:25;;;;;;;7.00;4.60;;;;;;;20.94;100.00;99382.26;104820;1254;71631;-52
2023/08/28 01:47:52;;;;;;;5.00;4.70;;;;;;;20.96;100.00;99382.85;106084;1257;67931;-51
2023/08/28 01:50:20;;;;;;;5.00;4.60;;;;;;;20.96;100.00;99389.45;105058;1256;74978;-51
2023/08/28 01:52:47;;;;;;;5.10;4.70;;;;;;;20.94;100.00;99388.88;104794;1262;62184;-50
2023/08/28 01:55:15;;;;;;;5.10;4.70;;;;;;;20.92;100.00;99387.44;105283;1256;60449;-51
2023/08/28 01:57:42;;;;;;;5.60;5.10;;;;;;;20.92;100.00;99380.90;104728;1259;73815;-50
2023/08/28 02:00:11;;;;;;;4.10;3.80;;;;;;;20.92;100.00;99377.62;104852;1257;65817;-50
2023/08/28 02:02:44;;;;;;;4.00;3.60;;;;;;;20.92;100.00;99384.02;104703;1257;70455;-51
2023/08/28 02:05:12;;;;;;;4.60;4.20;;;;;;;20.91;100.00;99384.95;104789;1256;61712;-51
2023/08/28 02:07:42;;;;;;;5.30;4.40;;;;;;;20.87;100.00;99392.44;104774;1254;60572;-51
2023/08/28 02:10:09;;;;;;;7.80;4.30;;;;;;;20.81;100.00;99388.71;104857;1259;73833;-49
2023/08/28 02:12:37;;;;;;;3.70;3.40;;;;;;;20.76;100.00;99390.55;104909;1255;66727;-50
2023/08/28 02:15:04;;;;;;;5.40;4.30;;;;;;;20.74;100.00;99387.36;104838;1256;70090;-49
2023/08/28 02:17:32;;;;;;;4.50;4.20;;;;;;;20.74;100.00;99382.23;106068;1255;62583;-50
2023/08/28 02:20:00;;;;;;;4.30;4.00;;;;;;;20.74;100.00;99380.98;104943;1259;60821;-50
2023/08/28 02:22:28;;;;;;;4.60;4.20;;;;;;;20.74;100.00;99375.15;105942;1254;74281;-49
2023/08/28 02:24:55;;;;;;;4.60;4.20;;;;;;;20.74;100.00;99375.27;105501;1254;66927;-50
2023/08/28 02:27:23;;;;;;;4.50;4.10;;;;;;;20.75;100.00;99373.98;104874;1256;70606;-51
2023/08/28 02:29:51;;;;;;;6.10;3.80;;;;;;;20.75;100.00;99364.95;104959;1257;61776;-52
2023/08/28 02:32:18;;;;;;;4.40;4.00;;;;;;;20.77;100.00;99363.52;105244;1256;60626;-49
2023/08/28 02:34:46;;;;;;;4.90;4.00;;;;;;;20.76;100.00;99364.51;105030;1258;73988;-51
2023/08/28 02:37:13;;;;;;;4.30;3.90;;;;;;;20.75;100.00;99365.95;108977;1254;65551;-52
2023/08/28 02:39:40;;;;;;;5.50;5.00;;;;;;;20.74;100.00;99367.98;108994;1254;72461;-52
2023/08/28 02:42:08;;;;;;;4.30;4.10;;;;;;;20.74;100.00;99369.52;108982;1256;60532;-53
2023/08/28 02:44:35;;;;;;;5.20;4.30;;;;;;;20.74;100.00;99366.03;109082;1252;59985;-52
2023/08/28 02:47:04;;;;;;;7.50;4.80;;;;;;;20.74;100.00;99363.95;108962;1253;72615;-52
2023/08/28 02:49:31;;;;;;;4.50;4.10;;;;;;;20.76;100.00;99358.52;108988;1253;69203;-53
2023/08/28 02:51:59;;;;;;;6.50;4.40;;;;;;;20.76;100.00;99354.83;109033;1256;72854;-52
2023/08/28 02:54:26;;;;;;;5.50;3.90;;;;;;;20.77;100.00;99355.27;109107;1254;61657;-52
2023/08/28 02:56:53;;;;;;;5.70;3.80;;;;;;;20.78;100.00;99352.47;109087;1252;59762;-52
2023/08/28 02:59:21;;;;;;;4.90;4.20;;;;;;;20.79;100.00;99352.58;109136;1253;73804;-53
2023/08/28 03:01:48;;;;;;;4.70;4.40;;;;;;;20.80;100.00;99357.62;109112;1252;65470;-52
2023/08/28 03:04:16;;;;;;;4.80;3.70;;;;;;;20.78;100.00;99356.30;108986;1254;71374;-53
2023/08/28 03:06:44;;;;;;;4.50;4.20;;;;;;;20.77;100.00;99355.11;109205;1253;61656;-52
2023/08/28 03:09:12;;;;;;;5.20;4.30;;;;;;;20.77;100.00;99354.06;108861;1253;59932;-53
2023/08/28 03:11:39;;;;;;;4.30;3.80;;;;;;;20.78;100.00;99356.98;109053;1253;73814;-52
2023/08/28 03:14:07;;;;;;;5.60;4.60;;;;;;;20.80;100.00;99356.52;109160;1254;67231;-52
2023/08/28 03:16:34;;;;;;;4.40;4.10;;;;;;;20.80;100.00;99353.95;109067;1253;72448;-52
2023/08/28 03:19:02;;;;;;;4.70;4.00;;;;;;;20.81;100.00;99353.54;105522;1254;62188;-51
2023/08/28 03:21:29;;;;;;;4.70;4.10;;;;;;;20.81;100.00;99350.23;105014;1258;60621;-50
2023/08/28 03:23:56;;;;;;;4.60;4.20;;;;;;;20.82;100.00;99345.96;104757;1260;72553;-50
2023/08/28 03:26:25;;;;;;;4.70;4.40;;;;;;;20.82;100.00;99346.09;104387;1259;65580;-51
2023/08/28 03:28:53;;;;;;;6.60;4.50;;;;;;;20.84;100.00;99344.45;105499;1253;71661;-50
2023/08/28 03:31:21;;;;;;;4.30;3.50;;;;;;;20.85;100.00;99341.95;105006;1256;62502;-51
2023/08/28 03:33:49;;;;;;;4.70;3.90;;;;;;;20.85;100.00;99339.16;104847;1257;60602;-51
2023/08/28 03:36:16;;;;;;;4.90;3.80;;;;;;;20.87;100.00;99338.36;104912;1253;73906;-50
2023/08/28 03:38:43;;;;;;;4.60;3.70;;;;;;;20.86;100.00;99332.92;104882;1260;65784;-50
2023/08/28 03:41:11;;;;;;;6.60;4.60;;;;;;;20.87;100.00;99334.63;104883;1252;72656;-50
2023/08/28 03:43:38;;;;;;;5.30;4.40;;;;;;;20.89;100.00;99332.09;104934;1260;61682;-50
2023/08/28 03:46:05;;;;;;;5.80;5.20;;;;;;;20.90;100.00;99328.48;104957;1253;60307;-52
2023/08/28 03:48:33;;;;;;;7.30;5.10;;;;;;;20.92;100.00;99329.20;104976;1254;73975;-51
2023/08/28 03:51:01;;;;;;;5.10;4.70;;;;;;;20.95;100.00;99327.85;104891;1253;65692;-52
2023/08/28 03:53:28;;;;;;;4.50;4.20;;;;;;;20.97;100.00;99329.64;104995;1253;71369;-50
2023/08/28 03:55:55;;;;;;;4.50;4.20;;;;;;;20.99;100.00;99327.59;104810;1253;61778;-52
2023/08/28 03:58:23;;;;;;;4.00;3.80;;;;;;;21.02;100.00;99329.89;105080;1253;60702;-51
2023/08/28 04:00:56;;;;;;;4.40;4.10;;;;;;;21.05;100.00;99320.88;104878;1258;75872;-52
2023/08/28 04:03:25;;;;;;;6.80;3.80;;;;;;;21.08;100.00;99315.45;105002;1253;65660;-51
2023/08/28 04:05:52;;;;;;;4.30;4.00;;;;;;;21.11;100.00;99312.41;106137;1259;72531;-50
2023/08/28 04:08:21;;;;;;;6.10;3.60;;;;;;;21.14;100.00;99305.48;104884;1253;61668;-51
2023/08/28 04:10:48;;;;;;;4.50;4.00;;;;;;;21.20;100.00;99301.29;105053;1253;60531;-52
2023/08/28 04:13:16;;;;;;;5.10;4.70;;;;;;;21.28;100.00;99297.39;105033;1257;74368;-51
2023/08/28 04:15:44;;;;;;;4.90;4.60;;;;;;;21.36;100.00;99295.48;105585;1260;67569;-51
2023/08/28 04:18:14;;;;;;;4.60;4.10;;;;;;;21.46;100.00;99295.94;105201;1255;71489;-51
2023/08/28 04:20:42;;;;;;;7.40;3.80;;;;;;;21.57;100.00;99298.17;105080;1257;61633;-50
2023/08/28 04:23:09;;;;;;;4.10;3.80;;;;;;;21.67;100.00;99295.79;105051;1253;60512;-51
2023/08/28 04:25:39;;;;;;;6.90;4.30;;;;;;;21.81;100.00;99297.64;105403;1253;73929;-51
2023/08/28 04:28:06;;;;;;;8.10;5.50;;;;;;;21.99;100.00;99293.52;104841;1259;66024;-52
2023/08/28 04:30:33;;;;;;;5.60;5.10;;;;;;;22.16;100.00;99294.16;104791;1253;73045;-52
2023/08/28 04:33:01;;;;;;;5.60;5.10;;;;;;;22.31;100.00;99294.52;105023;1256;60634;-54
2023/08/28 04:35:29;;;;;;;4.70;4.40;;;;;;;22.49;100.00;99295.58;104950;1253;60655;-51
2023/08/28 04:37:56;;;;;;;5.50;4.50;;;;;;;22.73;100.00;99293.38;105152;1259;76225;-52
2023/08/28 04:40:24;;;;;;;6.00;5.40;;;;;;;23.01;100.00;99293.05;105620;1254;67230;-51
2023/08/28 04:42:52;;;;;;;9.20;4.80;;;;;;;23.25;100.00;99284.75;107043;1253;72708;-52
2023/08/28 04:45:19;;;;;;;6.60;4.10;;;;;;;23.43;100.00;99283.48;104846;1256;61690;-51
2023/08/28 04:47:46;;;;;;;4.50;4.10;;;;;;;23.53;100.00;99283.47;104921;1253;60584;-51
2023/08/28 04:50:15;;;;;;;4.50;4.00;;;;;;;23.59;100.00;99288.70;105246;1253;74296;-50
2023/08/28 04:52:42;;;;;;;3.70;3.40;;;;;;;23.60;100.00;99289.70;105073;1258;65514;-50
2023/08/28 04:55:10;;;;;;;4.20;3.50;;;;;;;23.59;100.00;99291.13;104823;1259;72670;-50
2023/08/28 04:57:37;;;;;;;3.90;3.60;;;;;;;23.59;100.00;99292.57;104841;1253;60536;-51
2023/08/28 05:00:05;;;;;;;6.10;3.90;;;;;;;23.62;100.00;99290.56;104559;1253;202185;-52
2023/08/28 05:03:27;;;;;;;4.40;3.30;;;;;;;23.69;100.00;99361.36;102120;1290;600283;-52
2023/08/28 05:05:54;;;;;;;4.20;3.30;;;;;;;23.72;100.00;99349.91;104030;1267;60410;-50
2023/08/28 05:08:22;;;;;;;4.70;2.80;;;;;;;23.77;100.00;99345.48;104167;1272;59205;-51
2023/08/28 05:10:49;;;;;;;5.20;3.40;;;;;;;23.82;100.00;99343.30;104161;1269;71121;-52
2023/08/28 05:13:17;;;;;;;9.10;3.70;;;;;;;23.87;100.00;99339.51;104171;1271;66319;-53
2023/08/28 05:15:45;;;;;;;4.00;2.60;;;;;;;23.92;100.00;99339.30;104054;1273;70838;-53
2023/08/28 05:18:12;;;;;;;3.20;3.00;;;;;;;23.97;100.00;99332.73;104480;1264;156468;-51
2023/08/28 05:20:41;;;;;;;5.00;3.80;;;;;;;24.02;100.00;99331.80;104360;1268;59285;-52
2023/08/28 05:23:09;;;;;;;8.10;3.90;;;;;;;24.07;100.00;99327.96;105013;1269;72815;-52
2023/08/28 05:25:36;;;;;;;7.70;3.60;;;;;;;24.13;100.00;99327.62;104706;1258;65513;-51
2023/08/28 05:28:05;;;;;;;7.60;3.50;;;;;;;24.19;100.00;99323.67;104815;1260;72600;-51
2023/08/28 05:30:32;;;;;;;5.40;4.50;;;;;;;24.24;100.00;99326.77;106371;1257;59634;-54
2023/08/28 05:32:59;;;;;;;9.40;4.70;;;;;;;24.30;100.00;99328.29;104753;1258;60844;-52
2023/08/28 05:35:28;;;;;;;10.90;5.70;;;;;;;24.37;100.00;99327.86;104911;1256;72118;-52
2023/08/28 05:37:55;;;;;;;7.90;5.10;;;;;;;24.42;100.00;99328.04;104776;1257;67162;-52
2023/08/28 05:40:23;;;;;;;7.80;4.80;;;;;;;24.48;100.00;99333.95;104800;1257;74526;-51
2023/08/28 05:42:50;;;;;;;4.80;3.90;;;;;;;24.55;100.00;99334.26;104735;1259;60450;-53
2023/08/28 05:45:18;;;;;;;8.30;4.30;;;;;;;24.62;100.00;99338.38;104553;1257;59714;-52
2023/08/28 05:47:45;;;;;;;7.00;3.60;;;;;;;24.70;100.00;99342.39;104631;1263;72939;-52
2023/08/28 05:50:12;;;;;;;6.60;3.30;;;;;;;24.79;100.00;99336.11;104663;1262;65601;-53
2023/08/28 05:52:40;;;;;;;4.00;3.70;;;;;;;24.87;100.00;99339.02;104581;1262;73233;-51
2023/08/28 05:55:07;;;;;;;4.70;3.70;;;;;;;24.97;100.00;99338.91;104516;1257;59856;-52
2023/08/28 05:57:35;;;;;;;4.00;3.20;;;;;;;25.05;100.00;99337.89;104612;1257;59109;-53
2023/08/28 06:00:03;;;;;;;6.80;3.90;;;;;;;25.13;100.00;99336.39;104727;1258;73459;-51
2023/08/28 06:02:39;;;;;;;4.00;3.70;;;;;;;25.21;100.00;99340.59;104472;1259;65983;-53
2023/08/28 06:05:08;;;;;;;3.90;3.60;;;;;;;25.29;100.00;99341.95;104586;1258;73219;-53
2023/08/28 06:07:35;;;;;;;5.90;4.30;;;;;;;25.35;100.00;99340.85;104736;1262;59645;-53
2023/08/28 06:10:04;;;;;;;3.90;3.30;;;;;;;25.42;100.00;99343.52;104653;1258;59732;-53
2023/08/28 06:12:35;;;;;;;6.50;4.00;;;;;;;25.49;100.00;99344.55;108640;1257;73996;-54
2023/08/28 06:15:03;;;;;;;4.60;4.20;;;;;;;25.55;100.00;99343.24;108697;1257;66952;-54
2023/08/28 06:17:30;;;;;;;8.40;4.00;;;;;;;25.62;100.00;99347.27;107744;1258;71394;-54
2023/08/28 06:19:57;;;;;;;4.30;3.60;;;;;;;25.69;100.00;99349.80;104444;1257;62261;-52
2023/08/28 06:22:25;;;;;;;4.50;3.70;;;;;;;25.76;100.00;99355.00;104600;1260;59779;-52
2023/08/28 06:24:52;;;;;;;4.70;4.00;;;;;;;25.83;100.00;99359.61;104586;1258;73094;-53
2023/08/28 06:27:20;;;;;;;4.10;3.70;;;;;;;25.91;100.00;99362.74;104811;1257;67269;-52
2023/08/28 06:29:47;;;;;;;7.00;3.50;;;;;;;25.98;100.00;99364.28;104497;1257;71839;-51
2023/08/28 06:32:15;;;;;;;6.60;4.20;;;;;;;26.04;100.00;99363.25;104490;1257;59734;-52
2023/08/28 06:34:42;;;;;;;3.80;3.50;;;;;;;26.10;100.00;99367.70;104591;1264;59750;-51
2023/08/28 06:37:10;;;;;;;6.50;5.00;;;;;;;26.14;100.00;99367.31;104504;1258;73099;-52
2023/08/28 06:39:37;;;;;;;8.60;4.30;;;;;;;26.18;100.00;99369.30;104673;1263;66729;-52
2023/08/28 06:42:05;;;;;;;5.80;5.20;;;;;;;26.20;100.00;99370.06;104543;1263;72632;-53
2023/08/28 06:44:34;;;;;;;10.90;5.00;;;;;;;26.25;100.00;99373.43;104568;1257;61759;-52
2023/08/28 06:47:02;;;;;;;10.00;5.70;;;;;;;26.29;100.00;99371.86;104734;1257;59667;-52
2023/08/28 06:49:30;;;;;;;7.20;5.60;;;;;;;26.33;100.00;99373.17;104643;1264;73016;-51
2023/08/28 06:51:57;;;;;;;5.40;5.00;;;;;;;26.38;100.00;99369.55;104602;1257;65653;-53
2023/08/28 06:54:25;;;;;;;7.50;5.30;;;;;;;26.46;100.00;99374.23;104324;1258;73626;-53
2023/08/28 06:57:02;;;;;;;5.40;4.90;;;;;;;26.55;100.00;99377.73;104524;1257;60506;-54
2023/08/28 06:59:30;;;;;;;7.10;4.90;;;;;;;26.63;100.00;99380.26;104574;1260;60029;-52
2023/08/28 07:01:57;;;;;;;5.60;4.40;;;;;;;26.72;100.00;99384.42;104599;1262;73473;-51
2023/08/28 07:04:25;;;;;;;6.10;5.00;;;;;;;26.82;100.00;99386.02;104615;1264;66754;-53
2023/08/28 07:06:52;;;;;;;12.10;5.70;;;;;;;26.91;100.00;99387.73;104642;1257;73479;-53
2023/08/28 07:09:20;;;;;;;6.30;5.50;;;;;;;26.99;100.00;99391.11;104869;1257;62210;-53
2023/08/28 07:11:47;;;;;;;4.90;4.30;;;;;;;27.08;100.00;99398.58;104512;1261;60471;-53
2023/08/28 07:14:14;;;;;;;4.80;4.30;;;;;;;27.19;100.00;99404.27;104627;1257;74028;-52
2023/08/28 07:16:42;;;;;;;4.60;4.10;;;;;;;27.28;100.00;99398.20;104782;1263;66792;-52
2023/08/28 07:19:09;;;;;;;7.90;5.90;;;;;;;27.37;100.00;99405.66;104665;1257;72672;-51
2023/08/28 07:21:37;;;;;;;5.40;4.80;;;;;;;27.47;100.00;99407.24;104472;1261;59779;-52
2023/08/28 07:24:05;;;;;;;6.70;5.10;;;;;;;27.56;100.00;99404.20;104637;1259;59752;-51
2023/08/28 07:26:32;;;;;;;7.00;4.50;;;;;;;27.63;100.00;99410.58;104614;1263;72959;-53
2023/08/28 07:28:59;;;;;;;10.20;5.40;;;;;;;27.71;100.00;99410.17;104649;1257;66709;-53
2023/08/28 07:31:27;;;;;;;7.60;4.70;;;;;;;27.81;100.00;99413.33;104596;1256;71465;-53
2023/08/28 07:33:54;;;;;;;5.40;4.40;;;;;;;27.92;100.00;99416.79;104341;1259;60747;-52
2023/08/28 07:36:23;;;;;;;5.00;4.50;;;;;;;28.03;100.00;99417.23;104818;1253;61124;-53
2023/08/28 07:38:51;;;;;;;4.70;4.30;;;;;;;28.12;100.00;99412.35;105220;1254;73016;-51
2023/08/28 07:41:19;;;;;;;7.30;4.00;;;;;;;28.19;100.00;99411.41;104969;1253;66943;-52
2023/08/28 07:43:47;;;;;;;4.40;4.00;;;;;;;28.25;100.00;99414.59;104984;1257;73117;-50
2023/08/28 07:46:15;;;;;;;6.40;4.20;;;;;;;28.27;100.00;99414.52;104872;1253;59819;-52
2023/08/28 07:48:42;;;;;;;3.90;3.60;;;;;;;28.29;100.00;99417.98;105285;1253;60079;-53
2023/08/28 07:51:10;;;;;;;5.20;4.10;;;;;;;28.30;100.00;99414.83;104728;1258;73116;-52
2023/08/28 07:53:38;;;;;;;4.00;3.70;;;;;;;28.31;100.00;99416.16;104852;1255;65532;-54
2023/08/28 07:56:05;;;;;;;9.70;4.70;;;;;;;28.33;100.00;99415.36;104747;1253;74825;-54
2023/08/28 07:58:33;;;;;;;6.40;4.20;;;;;;;28.36;100.00;99418.55;104815;1253;59665;-53
2023/08/28 08:01:00;;;;;;;6.20;4.80;;;;;;;28.39;100.00;99423.69;104958;1253;59773;-54
2023/08/28 08:03:28;;;;;;;5.40;4.10;;;;;;;28.42;100.00;99426.79;105978;1253;72862;-54
2023/08/28 08:05:55;;;;;;;4.70;4.20;;;;;;;28.46;100.00;99427.52;104918;1254;66780;-52
2023/08/28 08:08:23;;;;;;;8.50;4.70;;;;;;;28.50;100.00;99426.87;104734;1253;72656;-52
2023/08/28 08:10:50;;;;;;;5.60;5.20;;;;;;;28.54;100.00;99428.58;104750;1258;60067;-53
2023/08/28 08:13:18;;;;;;;6.30;4.70;;;;;;;28.57;100.00;99432.02;104728;1253;60121;-53
2023/08/28 08:15:45;;;;;;;5.10;4.70;;;;;;;28.60;100.00;99439.41;104554;1253;71885;-53
2023/08/28 08:18:13;;;;;;;4.40;4.00;;;;;;;28.62;100.00;99448.17;104870;1253;65849;-52
2023/08/28 08:20:40;;;;;;;5.40;4.10;;;;;;;28.65;100.00;99452.27;105527;1258;71835;-53
2023/08/28 08:23:07;;;;;;;4.20;3.70;;;;;;;28.67;100.00;99457.63;104534;1253;60268;-54
2023/08/28 08:25:35;;;;;;;5.00;3.80;;;;;;;28.70;100.00;99456.52;104693;1254;60805;-54
2023/08/28 08:28:03;;;;;;;6.10;3.90;;;;;;;28.74;100.00;99455.71;104741;1254;72971;-54
2023/08/28 08:30:30;;;;;;;5.40;5.00;;;;;;;28.77;100.00;99458.85;104831;1253;66988;-52
2023/08/28 08:32:57;;;;;;;7.10;4.50;;;;;;;28.79;100.00;99457.32;104695;1253;72401;-53
2023/08/28 08:35:25;;;;;;;9.90;4.10;;;;;;;28.81;100.00;99459.40;104770;1253;59620;-53
2023/08/28 08:37:52;;;;;;;6.30;3.30;;;;;;;28.83;100.00;99461.89;104757;1256;59997;-53
2023/08/28 08:40:24;;;;;;;4.20;3.40;;;;;;;28.86;100.00;99462.98;108821;1257;71994;-54
2023/08/28 08:42:52;;;;;;;7.10;3.80;;;;;;;28.90;100.00;99464.27;108856;1253;65633;-54
2023/08/28 08:45:28;;;;;;;3.90;3.60;;;;;;;28.93;100.00;99464.08;108952;1258;73428;-54
2023/08/28 08:47:59;;;;;;;4.40;4.00;;;;;;;28.98;100.00;99467.33;107937;1257;60074;-54
2023/08/28 08:50:27;;;;;;;4.20;3.80;;;;;;;29.04;100.00;99465.48;104663;1256;59721;-54
2023/08/28 08:53:02;;;;;;;6.20;3.60;;;;;;;29.08;100.00;99466.02;108758;1253;73102;-55
2023/08/28 08:55:36;;;;;;;10.90;3.50;;;;;;;29.11;100.00;99466.76;108949;1253;65987;-54
2023/08/28 08:58:08;;;;;;;4.00;3.70;;;;;;;29.14;100.00;99469.09;108959;1255;73097;-54
2023/08/28 09:00:38;;;;;;;5.00;4.20;;;;;;;29.20;100.00;99471.73;108845;1253;58396;-54
2023/08/28 09:03:06;;;;;;;3.20;2.90;;;;;;;29.26;100.00;99480.31;108826;1253;58542;-54
2023/08/28 09:05:34;;;;;;;5.00;3.20;;;;;;;29.33;100.00;99484.90;108972;1253;71865;-54
2023/08/28 09:08:03;;;;;;;4.20;3.80;;;;;;;29.41;100.00;99486.35;107764;1253;66786;-54
2023/08/28 09:10:32;;;;;;;7.70;3.40;;;;;;;29.49;100.00;99492.14;108962;1253;72744;-54
2023/08/28 09:13:00;;;;;;;4.20;3.50;;;;;;;29.56;100.00;99493.90;108512;1253;59239;-54
2023/08/28 09:15:28;;;;;;;5.10;3.50;;;;;;;29.64;100.00;99493.78;106805;1256;60562;-54
2023/08/28 09:17:55;;;;;;;5.70;3.40;;;;;;;29.71;100.00;99493.91;107111;1253;72602;-54
2023/08/28 09:20:23;;;;;;;4.70;3.80;;;;;;;29.78;100.00;99494.73;105091;1256;67431;-54
2023/08/28 09:22:53;;;;;;;3.20;2.70;;;;;;;29.84;100.00;99501.98;104654;1254;71588;-54
2023/08/28 09:25:22;;;;;;;6.30;4.50;;;;;;;29.90;100.00;99496.77;105084;1254;61103;-53
2023/08/28 09:27:51;;;;;;;4.30;3.00;;;;;;;29.96;100.00;99500.45;105038;1256;60600;-54
2023/08/28 09:30:25;;;;;;;6.30;3.30;;;;;;;30.01;100.00;99503.11;105227;1253;73785;-53
2023/08/28 09:32:52;;;;;;;7.80;3.00;;;;;;;30.06;100.00;99507.43;104791;1254;65618;-54
2023/08/28 09:35:20;;;;;;;5.10;3.00;;;;;;;30.11;100.00;99505.08;104938;1253;72382;-54
2023/08/28 09:37:58;;;;;;;5.20;3.30;;;;;;;30.15;100.00;99509.79;108809;1253;59600;-54
2023/08/28 09:40:33;;;;;;;4.40;3.80;;;;;;;30.18;100.00;99510.59;105664;1257;60455;-53
2023/08/28 09:43:11;;;;;;;6.50;2.90;;;;;;;30.22;100.00;99514.56;104623;1253;73759;-53
2023/08/28 09:45:39;;;;;;;4.30;3.30;;;;;;;30.27;100.00;99514.80;104726;1256;65613;-53
2023/08/28 09:48:07;;;;;;;5.10;3.10;;;;;;;30.32;100.00;99507.74;104380;1255;72440;-54
2023/08/28 09:50:38;;;;;;;4.80;3.50;;;;;;;30.38;100.00;99511.44;105820;1256;60070;-54
2023/08/28 09:53:13;;;;;;;4.20;3.10;;;;;;;30.43;100.00;99515.70;104635;1253;60522;-54
2023/08/28 09:55:52;;;;;;;5.00;2.80;;;;;;;30.49;100.00;99514.48;105080;1253;72602;-53
2023/08/28 09:58:22;;;;;;;3.60;2.70;;;;;;;30.55;100.00;99514.10;108846;1256;67602;-55
2023/08/28 10:00:50;;;;;;;2.70;2.40;;;;;;;30.61;100.00;99518.66;106388;1256;72718;-54
2023/08/28 10:03:19;;;;;;;4.60;2.90;;;;;;;30.67;100.00;99514.15;105459;1253;60632;-55
2023/08/28 10:05:47;;;;;;;6.40;2.30;;;;;;;30.73;100.00;99511.13;105693;1260;60474;-53
2023/08/28 10:08:15;;;;;;;3.50;2.10;;;;;;;30.79;100.00;99510.80;105062;1253;74214;-55
2023/08/28 10:10:52;;;;;;;5.40;2.20;;;;;;;30.87;100.00;99516.25;105047;1253;65605;-53
2023/08/28 10:13:22;;;;;;;4.30;2.00;;;;;;;30.95;100.00;99521.27;104832;1256;72703;-52
2023/08/28 10:16:13;;;;;;;7.20;1.60;;;;;;;31.02;100.00;99527.53;107056;1253;60560;-54
2023/08/28 10:19:02;;;;;;;5.90;1.60;;;;;;;31.08;100.00;99534.75;105835;1253;60557;-52
2023/08/28 10:21:29;;;;;;;4.30;1.50;;;;;;;31.14;100.00;99534.08;105067;1256;73934;-50
2023/08/28 10:23:57;;;;;;;4.40;1.70;;;;;;;31.20;100.00;99536.71;105027;1255;65579;-53
2023/08/28 10:26:24;;;;;;;4.80;1.60;;;;;;;31.24;100.00;99538.02;104777;1253;73484;-53
2023/08/28 10:28:51;;;;;;;4.30;1.90;;;;;;;31.27;100.00;99540.52;104929;1255;61120;-53
2023/08/28 10:31:19;;;;;;;5.70;1.60;;;;;;;31.31;100.00;99541.25;104854;1253;62327;-53
2023/08/28 10:33:47;;;;;;;6.80;1.70;;;;;;;31.34;100.00;99538.00;104641;1260;73942;-53
2023/08/28 10:36:14;;;;;;;4.20;1.40;;;;;;;31.37;100.00;99544.73;104780;1253;66784;-55
2023/08/28 10:39:01;;;;;;;3.40;2.20;;;;;;;31.40;100.00;99547.41;104542;1259;72667;-54
2023/08/28 10:41:29;;;;;;;3.20;2.20;;;;;;;31.44;100.00;99547.77;104632;1261;60599;-52
2023/08/28 10:43:57;;;;;;;5.60;1.60;;;;;;;31.48;100.00;99548.66;104543;1254;62429;-53
2023/08/28 10:46:27;;;;;;;5.60;1.60;;;;;;;31.52;100.00;99550.71;105528;1260;73951;-53
2023/08/28 10:48:57;;;;;;;2.50;1.50;;;;;;;31.56;100.00;99546.21;104820;1255;65723;-53
2023/08/28 10:51:32;;;;;;;4.20;2.20;;;;;;;31.61;100.00;99540.08;105106;1253;72629;-53
2023/08/28 10:54:03;;;;;;;2.50;1.40;;;;;;;31.64;100.00;99540.35;105668;1256;60578;-54
2023/08/28 10:56:35;;;;;;;6.20;1.60;;;;;;;31.66;100.00;99540.34;105249;1253;60526;-53
2023/08/28 10:59:17;;;;;;;3.00;2.10;;;;;;;31.69;100.00;99540.95;104907;1258;75815;-54
2023/08/28 11:01:56;;;;;;;6.60;2.00;;;;;;;31.71;100.00;99547.16;106085;1258;68914;-53
2023/08/28 11:04:26;;;;;;;3.80;2.40;;;;;;;31.73;100.00;99546.21;104880;1253;72768;-52
2023/08/28 11:06:53;;;;;;;2.60;2.30;;;;;;;31.75;100.00;99541.92;104829;1258;60700;-53
2023/08/28 11:09:27;;;;;;;1.90;1.50;;;;;;;31.77;100.00;99540.17;105120;1253;60393;-52
2023/08/28 11:11:57;;;;;;;5.10;2.00;;;;;;;31.79;100.00;99537.73;104917;1256;72639;-52
2023/08/28 11:14:28;;;;;;;4.80;2.20;;;;;;;31.81;100.00;99537.25;104720;1258;66314;-53
2023/08/28 11:17:12;;;;;;;3.60;2.40;;;;;;;31.84;100.00;99533.82;105062;1258;79005;-53
2023/08/28 11:19:55;;;;;;;3.90;2.50;;;;;;;31.87;100.00;99535.40;104831;1256;60583;-54
2023/08/28 11:22:33;;;;;;;4.80;2.10;;;;;;;31.91;100.00;99536.93;105061;1258;60543;-54
2023/08/28 11:25:04;;;;;;;5.10;1.60;;;;;;;31.94;100.00;99534.53;105417;1253;74273;-55